Airfield :
LOGIN :

Register | Disclaimer

   EN    FR    IT 

 










Legend :    VFR   Marginal VFR   IFR   Intensive IFR   Very Intensive IFR
Visi :
Ceiling :
>= 8 km
>= 3000ft
5 to 8 km
1000 to 3000 ft
1500m to 5 km
500 to 1000 ft
800 to 1500m
200 to 500 ft
< 800m
< 200 ft
Symbols :   Thunderstorms  Fog  Heavy snow  Heavy precipitations  Wind > 20 kt
SIGMETs :     Misc.  Thunderstorms  Icing  Turbulence  Mountain Waves  Volcanic Ashes






- Airport Elevation : 148 ft
- IATA code : KHE


UKOH - Chernobayevka

CURRENT METAR :
  • 061000Z 08006MPS 010V120 CAVOK 33/11 Q1016 R03/CLRD// NOSIG

EXPIRED METARs :
  • 060930Z 08005MPS 320V120 CAVOK 33/10 Q1017 R03/CLRD// NOSIG
  • 060900Z 06005MPS 360V120 CAVOK 33/11 Q1017 R03/CLRD// NOSIG
  • 060830Z 08005MPS 050V130 CAVOK 32/10 Q1017 R03/CLRD// NOSIG
  • 060800Z 05006MPS 360V100 CAVOK 32/10 Q1017 R03/CLRD// NOSIG
  • 060730Z 06005MPS 020V100 CAVOK 31/10 Q1017 R03/CLRD// NOSIG

TAF TAF UKOH
Valid from the 06 at 09:00 until the 06 at 18:00 UTC


060802Z 0609/0618 08006G12MPS 9999 SCT030 TX35/0612Z TN28/0618Z



MET'MAP, your aeronautical weather chart ! - Copyright ORBIFLY December 2007 - Disclaimer

ORBIFLY MET'MAP TEAM :

Programming & Development : Alexandra Zaïnal
Concept & original design : Baudouin d'Aumeries
Assistance for programming : Marc-Olivier Méhu
Technical & hardware support : Manuel Goepfert

Contact : metmap@orbifly.com




SOURCES & CREDITS :

   NOAA